createdAt,value
2022-11-16T00:01:46.623Z,11.40
2022-11-16T00:06:49.861Z,11.35
2022-11-16T00:12:04.196Z,11.28
2022-11-16T00:17:06.320Z,11.19
2022-11-16T00:22:08.241Z,11.05
2022-11-16T00:27:10.147Z,10.94
2022-11-16T00:32:12.590Z,10.81
2022-11-16T00:37:14.443Z,10.74
2022-11-16T00:42:16.316Z,10.70
2022-11-16T00:47:18.427Z,10.67
2022-11-16T00:52:20.284Z,10.65
2022-11-16T00:57:22.262Z,10.62
2022-11-16T01:02:25.813Z,10.59
2022-11-16T01:07:27.748Z,10.59
2022-11-16T01:12:29.686Z,10.59
2022-11-16T01:17:31.594Z,10.58
2022-11-16T01:22:37.917Z,10.53
2022-11-16T01:27:40.829Z,10.43
2022-11-16T01:32:47.446Z,10.36
2022-11-16T01:37:50.220Z,10.37
2022-11-16T01:42:53.068Z,10.35
2022-11-16T01:47:55.531Z,10.33
2022-11-16T01:53:05.941Z,10.33
2022-11-16T01:58:19.913Z,10.36
2022-11-16T02:03:27.285Z,10.38
2022-11-16T02:08:57.626Z,10.29
2022-11-16T02:14:20.420Z,10.18
2022-11-16T02:20:00.485Z,10.10
2022-11-16T02:25:05.758Z,10.08
2022-11-16T02:30:08.623Z,10.06
2022-11-16T02:35:37.067Z,10.02
2022-11-16T02:40:46.690Z,9.97
2022-11-16T02:45:55.477Z,9.93
2022-11-16T02:50:57.959Z,9.89
2022-11-16T02:55:59.969Z,9.81
2022-11-16T03:01:18.272Z,9.73
2022-11-16T03:06:29.864Z,9.68
2022-11-16T03:11:55.002Z,9.64
2022-11-16T03:16:57.957Z,9.63
2022-11-16T03:22:04.747Z,9.61
2022-11-16T03:27:22.215Z,9.57
2022-11-16T03:32:36.827Z,9.54
2022-11-16T03:37:43.253Z,9.54
2022-11-16T03:42:49.681Z,9.55
2022-11-16T03:47:52.445Z,9.60
2022-11-16T03:52:55.837Z,9.64
2022-11-16T03:57:58.317Z,9.66
2022-11-16T04:03:00.254Z,9.69
2022-11-16T04:08:20.988Z,9.67
2022-11-16T04:13:47.671Z,9.67
2022-11-16T04:19:08.349Z,9.62
2022-11-16T04:24:20.856Z,9.63
2022-11-16T04:29:23.134Z,9.66
2022-11-16T04:34:43.882Z,9.66
2022-11-16T04:39:45.765Z,9.69
2022-11-16T04:45:06.711Z,9.68
2022-11-16T04:50:13.725Z,9.71
2022-11-16T04:55:16.038Z,9.77
2022-11-16T05:00:19.474Z,9.83
2022-11-16T05:05:21.773Z,9.88
2022-11-16T05:10:24.521Z,9.94
2022-11-16T05:15:27.416Z,9.99
2022-11-16T05:20:48.450Z,10.00
2022-11-16T05:25:50.360Z,9.96
2022-11-16T05:30:52.557Z,9.91
2022-11-16T05:35:57.430Z,9.90
2022-11-16T05:40:59.607Z,9.91
2022-11-16T05:46:02.188Z,9.94
2022-11-16T05:51:04.106Z,9.95
2022-11-16T05:56:08.777Z,9.97
2022-11-16T06:01:13.181Z,9.94
2022-11-16T06:06:15.410Z,9.92
2022-11-16T06:11:17.963Z,9.91
2022-11-16T06:16:20.623Z,9.90
2022-11-16T06:21:22.923Z,9.91
2022-11-16T06:26:24.935Z,9.89
2022-11-16T06:31:26.909Z,9.84
2022-11-16T06:36:29.959Z,9.85
2022-11-16T06:41:32.941Z,9.85
2022-11-16T06:46:35.249Z,9.88
2022-11-16T06:51:37.814Z,9.91
2022-11-16T06:56:39.933Z,9.94
2022-11-16T07:01:43.145Z,9.94
2022-11-16T07:06:47.698Z,9.94
2022-11-16T07:11:50.266Z,9.91
2022-11-16T07:16:59.324Z,9.88
2022-11-16T07:22:04.386Z,9.84
2022-11-16T07:27:08.569Z,9.81
2022-11-16T07:32:11.789Z,9.80
2022-11-16T07:37:52.686Z,9.81
2022-11-16T07:42:57.796Z,9.86
2022-11-16T07:48:06.298Z,9.89
2022-11-16T07:53:26.778Z,9.91
2022-11-16T07:58:30.016Z,9.92
2022-11-16T08:03:34.142Z,9.95
2022-11-16T08:08:38.876Z,10.00
2022-11-16T08:13:42.539Z,10.10
2022-11-16T08:18:45.328Z,10.10
2022-11-16T08:23:48.260Z,10.12
2022-11-16T08:28:51.453Z,10.16
2022-11-16T08:33:54.377Z,10.19
2022-11-16T08:38:56.545Z,10.17
2022-11-16T08:44:00.310Z,10.18
2022-11-16T08:49:02.462Z,10.13
2022-11-16T08:54:06.382Z,10.15
2022-11-16T08:59:10.434Z,10.20
2022-11-16T09:04:15.337Z,10.26
2022-11-16T09:09:17.180Z,10.24
2022-11-16T09:14:19.052Z,10.23
2022-11-16T09:19:21.056Z,10.22
2022-11-16T09:24:22.900Z,10.16
2022-11-16T09:29:27.722Z,10.09
2022-11-16T09:34:29.686Z,10.10
2022-11-16T09:39:32.684Z,10.10
2022-11-16T09:45:05.221Z,10.09
2022-11-16T09:50:19.185Z,10.14
2022-11-16T09:55:25.998Z,10.14
2022-11-16T10:00:30.837Z,10.04
2022-11-16T10:06:06.500Z,10.02
2022-11-16T10:11:17.500Z,10.04
2022-11-16T10:16:48.855Z,10.01
2022-11-16T10:22:09.452Z,10.00
2022-11-16T10:27:27.710Z,10.00
2022-11-16T10:32:33.635Z,9.99
2022-11-16T10:37:39.405Z,9.97
2022-11-16T10:42:41.287Z,9.95
2022-11-16T10:48:16.726Z,9.95
2022-11-16T10:53:36.868Z,9.92
2022-11-16T10:59:06.322Z,9.85
2022-11-16T11:04:24.526Z,9.80
2022-11-16T11:09:27.845Z,9.76
2022-11-16T11:14:32.691Z,9.70
2022-11-16T11:19:34.539Z,9.63
2022-11-16T11:24:45.184Z,9.56
2022-11-16T11:29:52.958Z,9.48
2022-11-16T11:34:56.331Z,9.37
2022-11-16T11:40:27.791Z,9.38
2022-11-16T11:45:39.655Z,9.33
2022-11-16T11:50:50.357Z,9.31
2022-11-16T11:55:57.835Z,9.25
2022-11-16T12:01:35.601Z,9.13
2022-11-16T12:07:02.346Z,9.05
2022-11-16T12:12:22.467Z,8.99
2022-11-16T12:17:39.153Z,8.94
2022-11-16T12:23:08.253Z,8.89
2022-11-16T12:28:42.174Z,8.76
2022-11-16T12:33:58.593Z,8.71
2022-11-16T12:39:26.801Z,8.68
2022-11-16T12:44:37.785Z,8.59
2022-11-16T12:50:17.422Z,8.54
2022-11-16T12:55:42.605Z,8.41
2022-11-16T13:00:50.173Z,8.34
2022-11-16T13:06:06.680Z,8.30
2022-11-16T13:11:14.928Z,8.25
2022-11-16T13:16:18.168Z,8.22
2022-11-16T13:21:42.004Z,8.22
2022-11-16T13:27:06.114Z,8.22
2022-11-16T13:32:24.421Z,8.22
2022-11-16T13:37:38.293Z,8.23
2022-11-16T13:42:58.304Z,8.22
2022-11-16T13:48:03.480Z,8.24
2022-11-16T13:58:44.004Z,8.28
2022-11-16T14:03:52.050Z,8.26
2022-11-16T14:08:55.543Z,8.21
2022-11-16T14:14:00.959Z,8.20
2022-11-16T14:19:05.279Z,8.15
2022-11-16T14:24:25.742Z,8.11
2022-11-16T14:29:56.215Z,8.08
2022-11-16T14:35:00.586Z,8.08
2022-11-16T14:40:16.983Z,8.10
2022-11-16T14:45:29.524Z,8.03
2022-11-16T14:50:39.619Z,8.06
2022-11-16T14:55:46.315Z,8.06
2022-11-16T15:00:58.665Z,8.02
2022-11-16T15:06:02.524Z,8.00
2022-11-16T15:11:08.341Z,7.99
2022-11-16T15:16:14.774Z,7.95
2022-11-16T15:21:23.925Z,7.94
2022-11-16T15:26:25.791Z,7.90
2022-11-16T15:31:28.852Z,7.87
2022-11-16T15:36:41.388Z,7.86
2022-11-16T15:41:44.067Z,7.85
2022-11-16T15:46:49.189Z,7.85
2022-11-16T15:51:51.373Z,7.83
2022-11-16T15:56:56.823Z,7.82
2022-11-16T16:01:59.049Z,7.82
2022-11-16T16:07:01.299Z,7.83
2022-11-16T16:12:23.330Z,7.82
2022-11-16T16:17:30.170Z,7.79
2022-11-16T16:22:36.564Z,7.70
2022-11-16T16:27:40.787Z,7.64
2022-11-16T16:32:42.719Z,7.62
2022-11-16T16:37:44.784Z,7.59
2022-11-16T16:42:49.650Z,7.55
2022-11-16T16:47:51.607Z,7.53
2022-11-16T16:52:53.498Z,7.47
2022-11-16T16:57:57.745Z,7.43
2022-11-16T17:02:59.580Z,7.35
2022-11-16T17:08:01.762Z,7.33
2022-11-16T17:13:03.971Z,7.32
2022-11-16T17:18:05.856Z,7.34
2022-11-16T17:23:07.679Z,7.27
2022-11-16T17:28:09.531Z,7.19
2022-11-16T17:33:11.417Z,7.17
2022-11-16T17:38:13.365Z,7.14
2022-11-16T17:43:15.150Z,7.19
2022-11-16T17:48:17.023Z,7.13
2022-11-16T17:53:18.837Z,7.15
2022-11-16T17:58:21.298Z,7.14
2022-11-16T18:03:28.376Z,7.16
2022-11-16T18:08:32.065Z,7.16
2022-11-16T18:13:34.713Z,7.17
2022-11-16T18:18:38.500Z,7.17
2022-11-16T18:23:40.721Z,7.15
2022-11-16T18:28:45.305Z,7.11
2022-11-16T18:33:49.416Z,7.09
2022-11-16T18:38:51.397Z,7.13
2022-11-16T18:43:55.502Z,7.12
2022-11-16T18:48:58.124Z,7.10
2022-11-16T18:54:00.016Z,7.05
2022-11-16T18:59:02.985Z,7.04
2022-11-16T19:04:05.083Z,7.01
2022-11-16T19:09:09.838Z,7.00
2022-11-16T19:14:11.711Z,6.93
2022-11-16T19:19:14.077Z,6.91
2022-11-16T19:24:15.957Z,6.85
2022-11-16T19:29:17.773Z,6.78
2022-11-16T19:34:19.681Z,6.75
2022-11-16T19:39:21.479Z,6.63
2022-11-16T19:44:23.462Z,6.43
2022-11-16T19:49:26.232Z,6.35
2022-11-16T19:54:28.178Z,6.28
2022-11-16T19:59:30.013Z,6.20
2022-11-16T20:04:35.649Z,6.10
2022-11-16T20:09:37.594Z,6.00
2022-11-16T20:14:39.531Z,5.93
2022-11-16T20:19:41.954Z,5.86
2022-11-16T20:24:43.828Z,5.74
2022-11-16T20:29:45.936Z,5.67
2022-11-16T20:34:47.766Z,5.63
2022-11-16T20:39:52.727Z,5.60
2022-11-16T20:44:54.645Z,5.56
2022-11-16T20:49:58.598Z,5.49
2022-11-16T20:55:00.594Z,5.37
2022-11-16T21:00:02.490Z,5.33
2022-11-16T21:05:04.591Z,5.31
2022-11-16T21:10:19.426Z,5.22
2022-11-16T21:15:21.367Z,5.06
2022-11-16T21:20:27.951Z,4.96
2022-11-16T21:25:30.536Z,4.90
2022-11-16T21:30:32.410Z,4.83
2022-11-16T21:35:34.383Z,4.83
2022-11-16T21:40:36.288Z,4.81
2022-11-16T21:45:38.123Z,4.73
2022-11-16T21:50:41.311Z,4.64
2022-11-16T21:55:49.724Z,4.61
2022-11-16T22:00:56.485Z,4.61
2022-11-16T22:06:19.104Z,4.59
2022-11-16T22:11:22.449Z,4.54
2022-11-16T22:16:26.992Z,4.54
2022-11-16T22:21:28.903Z,4.49
2022-11-16T22:26:30.752Z,4.49
2022-11-16T22:31:33.646Z,4.47
2022-11-16T22:36:35.540Z,4.50
2022-11-16T22:41:37.421Z,4.43
2022-11-16T22:46:39.304Z,4.40
2022-11-16T22:51:41.268Z,4.39
2022-11-16T22:56:43.824Z,4.31
2022-11-16T23:01:45.913Z,4.25
2022-11-16T23:06:47.931Z,4.29
2022-11-16T23:12:08.744Z,4.23
2022-11-16T23:17:10.673Z,4.21
2022-11-16T23:22:36.980Z,4.14
2022-11-16T23:27:55.615Z,4.12
2022-11-16T23:32:57.522Z,4.12
2022-11-16T23:38:01.638Z,4.11
2022-11-16T23:43:23.368Z,4.15
2022-11-16T23:48:25.226Z,4.11
2022-11-16T23:53:27.232Z,4.16
2022-11-16T23:58:29.104Z,4.18
